sensor_id;sensor_type;location;lat;lon;timestamp;temperature;humidity
14555;DHT22;7364;50.870;4.722;2023-05-10T00:01:56;13.70;99.90
14555;DHT22;7364;50.870;4.722;2023-05-10T00:04:24;13.60;99.90
14555;DHT22;7364;50.870;4.722;2023-05-10T00:06:53;13.70;99.90
14555;DHT22;7364;50.870;4.722;2023-05-10T00:09:21;13.70;99.90
14555;DHT22;7364;50.870;4.722;2023-05-10T00:11:49;13.70;99.90
14555;DHT22;7364;50.870;4.722;2023-05-10T00:14:16;13.70;99.90
14555;DHT22;7364;50.870;4.722;2023-05-10T00:16:44;13.70;99.90
14555;DHT22;7364;50.870;4.722;2023-05-10T00:19:11;13.60;99.90
14555;DHT22;7364;50.870;4.722;2023-05-10T00:21:38;13.60;99.90
14555;DHT22;7364;50.870;4.722;2023-05-10T00:24:06;13.60;99.90
14555;DHT22;7364;50.870;4.722;2023-05-10T00:26:34;13.70;99.90
14555;DHT22;7364;50.870;4.722;2023-05-10T00:29:02;13.60;99.90
14555;DHT22;7364;50.870;4.722;2023-05-10T00:31:31;13.70;99.90
14555;DHT22;7364;50.870;4.722;2023-05-10T00:33:58;13.70;99.90
14555;DHT22;7364;50.870;4.722;2023-05-10T00:36:26;13.80;99.90
14555;DHT22;7364;50.870;4.722;2023-05-10T00:38:56;13.90;99.90
14555;DHT22;7364;50.870;4.722;2023-05-10T00:41:23;14.00;99.90
14555;DHT22;7364;50.870;4.722;2023-05-10T00:43:52;14.10;99.90
14555;DHT22;7364;50.870;4.722;2023-05-10T00:46:19;14.00;99.90
14555;DHT22;7364;50.870;4.722;2023-05-10T00:48:47;14.10;99.90
14555;DHT22;7364;50.870;4.722;2023-05-10T00:51:15;14.10;99.90
14555;DHT22;7364;50.870;4.722;2023-05-10T00:53:43;14.20;99.90
14555;DHT22;7364;50.870;4.722;2023-05-10T00:56:12;14.20;99.90
14555;DHT22;7364;50.870;4.722;2023-05-10T00:58:39;14.30;99.90
14555;DHT22;7364;50.870;4.722;2023-05-10T01:01:08;14.40;99.90
14555;DHT22;7364;50.870;4.722;2023-05-10T01:03:36;14.40;99.90
14555;DHT22;7364;50.870;4.722;2023-05-10T01:06:04;14.30;99.90
14555;DHT22;7364;50.870;4.722;2023-05-10T01:08:31;14.10;99.90
14555;DHT22;7364;50.870;4.722;2023-05-10T01:10:59;14.00;99.90
14555;DHT22;7364;50.870;4.722;2023-05-10T01:13:32;14.20;99.90
14555;DHT22;7364;50.870;4.722;2023-05-10T01:16:00;14.20;99.90
14555;DHT22;7364;50.870;4.722;2023-05-10T01:18:33;14.30;99.90
14555;DHT22;7364;50.870;4.722;2023-05-10T01:21:19;14.40;99.90
14555;DHT22;7364;50.870;4.722;2023-05-10T01:24:25;14.30;99.90
14555;DHT22;7364;50.870;4.722;2023-05-10T01:27:25;14.30;99.90
14555;DHT22;7364;50.870;4.722;2023-05-10T01:33:10;14.10;99.90
14555;DHT22;7364;50.870;4.722;2023-05-10T01:35:41;14.20;99.90
14555;DHT22;7364;50.870;4.722;2023-05-10T01:38:16;14.30;99.90
14555;DHT22;7364;50.870;4.722;2023-05-10T01:40:51;14.30;99.90
14555;DHT22;7364;50.870;4.722;2023-05-10T01:43:22;14.10;99.90
14555;DHT22;7364;50.870;4.722;2023-05-10T01:46:00;13.90;99.90
14555;DHT22;7364;50.870;4.722;2023-05-10T01:48:40;13.80;99.90
14555;DHT22;7364;50.870;4.722;2023-05-10T01:51:14;13.70;99.90
14555;DHT22;7364;50.870;4.722;2023-05-10T01:53:43;13.60;99.90
14555;DHT22;7364;50.870;4.722;2023-05-10T01:56:12;13.60;99.90
14555;DHT22;7364;50.870;4.722;2023-05-10T01:58:44;13.50;99.90
14555;DHT22;7364;50.870;4.722;2023-05-10T02:01:13;13.60;99.90
14555;DHT22;7364;50.870;4.722;2023-05-10T02:03:43;13.60;99.90
14555;DHT22;7364;50.870;4.722;2023-05-10T02:06:13;13.60;99.90
14555;DHT22;7364;50.870;4.722;2023-05-10T02:08:41;13.80;99.90
14555;DHT22;7364;50.870;4.722;2023-05-10T02:11:13;13.80;99.90
14555;DHT22;7364;50.870;4.722;2023-05-10T02:13:41;13.70;99.90
14555;DHT22;7364;50.870;4.722;2023-05-10T02:16:09;13.90;99.90
14555;DHT22;7364;50.870;4.722;2023-05-10T02:18:37;13.90;99.90
14555;DHT22;7364;50.870;4.722;2023-05-10T02:21:08;13.80;99.90
14555;DHT22;7364;50.870;4.722;2023-05-10T02:23:36;13.90;99.90
14555;DHT22;7364;50.870;4.722;2023-05-10T02:26:04;13.90;99.90
14555;DHT22;7364;50.870;4.722;2023-05-10T02:28:33;13.90;99.90
14555;DHT22;7364;50.870;4.722;2023-05-10T02:31:01;14.00;99.90
14555;DHT22;7364;50.870;4.722;2023-05-10T02:33:29;13.80;99.90
14555;DHT22;7364;50.870;4.722;2023-05-10T02:35:57;13.80;99.90
14555;DHT22;7364;50.870;4.722;2023-05-10T02:38:27;13.90;99.90
14555;DHT22;7364;50.870;4.722;2023-05-10T02:40:54;13.90;99.90
14555;DHT22;7364;50.870;4.722;2023-05-10T02:43:23;13.80;99.90
14555;DHT22;7364;50.870;4.722;2023-05-10T02:45:51;13.90;99.90
14555;DHT22;7364;50.870;4.722;2023-05-10T02:48:18;14.00;99.90
14555;DHT22;7364;50.870;4.722;2023-05-10T02:50:45;13.90;99.90
14555;DHT22;7364;50.870;4.722;2023-05-10T02:53:22;13.90;99.90
14555;DHT22;7364;50.870;4.722;2023-05-10T02:55:55;13.90;99.90
14555;DHT22;7364;50.870;4.722;2023-05-10T02:58:24;14.00;99.90
14555;DHT22;7364;50.870;4.722;2023-05-10T03:00:52;14.10;99.90
14555;DHT22;7364;50.870;4.722;2023-05-10T03:03:19;14.30;99.90
14555;DHT22;7364;50.870;4.722;2023-05-10T03:05:47;14.40;99.90
14555;DHT22;7364;50.870;4.722;2023-05-10T03:08:14;14.40;99.90
14555;DHT22;7364;50.870;4.722;2023-05-10T03:10:47;14.40;99.90
14555;DHT22;7364;50.870;4.722;2023-05-10T03:13:27;14.30;99.90
14555;DHT22;7364;50.870;4.722;2023-05-10T03:15:59;14.10;99.90
14555;DHT22;7364;50.870;4.722;2023-05-10T03:18:33;13.90;99.90
14555;DHT22;7364;50.870;4.722;2023-05-10T03:21:04;13.80;99.90
14555;DHT22;7364;50.870;4.722;2023-05-10T03:23:36;13.70;99.90
14555;DHT22;7364;50.870;4.722;2023-05-10T03:26:06;13.60;99.90
14555;DHT22;7364;50.870;4.722;2023-05-10T03:28:35;13.60;99.90
14555;DHT22;7364;50.870;4.722;2023-05-10T03:31:04;13.60;99.90
14555;DHT22;7364;50.870;4.722;2023-05-10T03:33:32;13.40;99.90
14555;DHT22;7364;50.870;4.722;2023-05-10T03:35:59;13.30;99.90
14555;DHT22;7364;50.870;4.722;2023-05-10T03:38:27;13.20;99.90
14555;DHT22;7364;50.870;4.722;2023-05-10T03:40:54;13.20;99.90
14555;DHT22;7364;50.870;4.722;2023-05-10T03:43:21;13.10;99.90
14555;DHT22;7364;50.870;4.722;2023-05-10T03:45:50;13.10;99.90
14555;DHT22;7364;50.870;4.722;2023-05-10T03:48:19;13.10;99.90
14555;DHT22;7364;50.870;4.722;2023-05-10T03:50:50;13.10;99.90
14555;DHT22;7364;50.870;4.722;2023-05-10T03:53:17;13.00;99.90
14555;DHT22;7364;50.870;4.722;2023-05-10T03:55:44;12.90;99.90
14555;DHT22;7364;50.870;4.722;2023-05-10T03:58:12;13.00;99.90
14555;DHT22;7364;50.870;4.722;2023-05-10T04:00:39;12.90;99.90
14555;DHT22;7364;50.870;4.722;2023-05-10T04:03:11;12.80;99.90
14555;DHT22;7364;50.870;4.722;2023-05-10T04:05:38;12.70;99.90
14555;DHT22;7364;50.870;4.722;2023-05-10T04:08:06;12.60;99.90
14555;DHT22;7364;50.870;4.722;2023-05-10T04:10:33;12.60;99.90
14555;DHT22;7364;50.870;4.722;2023-05-10T04:13:00;12.60;99.90
14555;DHT22;7364;50.870;4.722;2023-05-10T04:15:28;12.60;99.90
14555;DHT22;7364;50.870;4.722;2023-05-10T04:17:55;12.60;99.90
14555;DHT22;7364;50.870;4.722;2023-05-10T04:20:23;12.60;99.90
14555;DHT22;7364;50.870;4.722;2023-05-10T04:22:51;12.60;99.90
14555;DHT22;7364;50.870;4.722;2023-05-10T04:25:18;12.60;99.90
14555;DHT22;7364;50.870;4.722;2023-05-10T04:27:45;12.60;99.90
14555;DHT22;7364;50.870;4.722;2023-05-10T04:30:14;12.60;99.90
14555;DHT22;7364;50.870;4.722;2023-05-10T04:32:41;12.60;99.90
14555;DHT22;7364;50.870;4.722;2023-05-10T04:35:08;12.60;99.90
14555;DHT22;7364;50.870;4.722;2023-05-10T04:37:37;12.50;99.90
14555;DHT22;7364;50.870;4.722;2023-05-10T04:40:06;12.60;99.90
14555;DHT22;7364;50.870;4.722;2023-05-10T04:42:33;12.60;99.90
14555;DHT22;7364;50.870;4.722;2023-05-10T04:45:01;12.60;99.90
14555;DHT22;7364;50.870;4.722;2023-05-10T04:47:28;12.60;99.90
14555;DHT22;7364;50.870;4.722;2023-05-10T04:49:55;12.60;99.90
14555;DHT22;7364;50.870;4.722;2023-05-10T04:52:22;12.60;99.90
14555;DHT22;7364;50.870;4.722;2023-05-10T04:54:51;12.60;99.90
14555;DHT22;7364;50.870;4.722;2023-05-10T04:57:18;12.60;99.90
14555;DHT22;7364;50.870;4.722;2023-05-10T04:59:45;12.70;99.90
14555;DHT22;7364;50.870;4.722;2023-05-10T05:02:15;12.70;99.90
14555;DHT22;7364;50.870;4.722;2023-05-10T05:04:43;12.60;99.90
14555;DHT22;7364;50.870;4.722;2023-05-10T05:07:10;12.50;99.90
14555;DHT22;7364;50.870;4.722;2023-05-10T05:09:37;12.50;99.90
14555;DHT22;7364;50.870;4.722;2023-05-10T05:12:06;12.60;99.90
14555;DHT22;7364;50.870;4.722;2023-05-10T05:14:33;12.50;99.90
14555;DHT22;7364;50.870;4.722;2023-05-10T05:17:00;12.60;99.90
14555;DHT22;7364;50.870;4.722;2023-05-10T05:19:27;12.60;99.90
14555;DHT22;7364;50.870;4.722;2023-05-10T05:21:54;12.70;99.90
14555;DHT22;7364;50.870;4.722;2023-05-10T05:24:22;12.70;99.90
14555;DHT22;7364;50.870;4.722;2023-05-10T05:26:49;12.80;99.90
14555;DHT22;7364;50.870;4.722;2023-05-10T05:29:17;12.80;99.90
14555;DHT22;7364;50.870;4.722;2023-05-10T05:31:45;12.70;99.90
14555;DHT22;7364;50.870;4.722;2023-05-10T05:34:13;12.70;99.90
14555;DHT22;7364;50.870;4.722;2023-05-10T05:36:40;12.80;99.90
14555;DHT22;7364;50.870;4.722;2023-05-10T05:39:07;12.80;99.90
14555;DHT22;7364;50.870;4.722;2023-05-10T05:41:34;12.80;99.90
14555;DHT22;7364;50.870;4.722;2023-05-10T05:44:03;12.80;99.90
14555;DHT22;7364;50.870;4.722;2023-05-10T05:46:32;12.70;99.90
14555;DHT22;7364;50.870;4.722;2023-05-10T05:48:59;12.70;99.90
14555;DHT22;7364;50.870;4.722;2023-05-10T05:51:26;12.80;99.90
14555;DHT22;7364;50.870;4.722;2023-05-10T05:53:53;12.80;99.90
14555;DHT22;7364;50.870;4.722;2023-05-10T05:56:20;12.80;99.90
14555;DHT22;7364;50.870;4.722;2023-05-10T05:58:50;12.90;99.90
14555;DHT22;7364;50.870;4.722;2023-05-10T06:01:17;12.80;99.90
14555;DHT22;7364;50.870;4.722;2023-05-10T06:03:45;12.80;99.90
14555;DHT22;7364;50.870;4.722;2023-05-10T06:06:13;12.80;99.90
14555;DHT22;7364;50.870;4.722;2023-05-10T06:08:40;12.80;99.90
14555;DHT22;7364;50.870;4.722;2023-05-10T06:11:07;12.90;99.90
14555;DHT22;7364;50.870;4.722;2023-05-10T06:13:34;12.70;99.90
14555;DHT22;7364;50.870;4.722;2023-05-10T06:16:02;12.80;99.90
14555;DHT22;7364;50.870;4.722;2023-05-10T06:18:29;12.90;99.90
14555;DHT22;7364;50.870;4.722;2023-05-10T06:20:58;13.00;99.90
14555;DHT22;7364;50.870;4.722;2023-05-10T06:23:25;13.10;99.90
14555;DHT22;7364;50.870;4.722;2023-05-10T06:25:52;13.20;99.90
14555;DHT22;7364;50.870;4.722;2023-05-10T06:28:19;13.40;99.90
14555;DHT22;7364;50.870;4.722;2023-05-10T06:30:47;13.80;99.90
14555;DHT22;7364;50.870;4.722;2023-05-10T06:33:14;13.80;99.90
14555;DHT22;7364;50.870;4.722;2023-05-10T06:35:41;13.90;99.90
14555;DHT22;7364;50.870;4.722;2023-05-10T06:38:10;13.80;99.90
14555;DHT22;7364;50.870;4.722;2023-05-10T06:40:40;13.80;99.90
14555;DHT22;7364;50.870;4.722;2023-05-10T06:43:08;14.10;99.90
14555;DHT22;7364;50.870;4.722;2023-05-10T06:45:35;14.10;99.90
14555;DHT22;7364;50.870;4.722;2023-05-10T06:48:03;14.30;99.90
14555;DHT22;7364;50.870;4.722;2023-05-10T06:50:30;14.20;99.90
14555;DHT22;7364;50.870;4.722;2023-05-10T06:52:57;14.20;99.90
14555;DHT22;7364;50.870;4.722;2023-05-10T06:55:26;14.10;99.90
14555;DHT22;7364;50.870;4.722;2023-05-10T06:57:53;14.10;99.90
14555;DHT22;7364;50.870;4.722;2023-05-10T07:00:21;14.00;99.90
14555;DHT22;7364;50.870;4.722;2023-05-10T07:02:48;13.90;99.90
14555;DHT22;7364;50.870;4.722;2023-05-10T07:05:15;14.00;99.90
14555;DHT22;7364;50.870;4.722;2023-05-10T07:07:42;14.00;99.90
14555;DHT22;7364;50.870;4.722;2023-05-10T07:10:10;13.90;99.90
14555;DHT22;7364;50.870;4.722;2023-05-10T07:12:38;13.90;99.90
14555;DHT22;7364;50.870;4.722;2023-05-10T07:15:07;14.20;99.90
14555;DHT22;7364;50.870;4.722;2023-05-10T07:17:34;14.40;99.90
14555;DHT22;7364;50.870;4.722;2023-05-10T07:20:01;14.40;99.90
14555;DHT22;7364;50.870;4.722;2023-05-10T07:22:29;14.40;99.90
14555;DHT22;7364;50.870;4.722;2023-05-10T07:24:56;14.30;99.90
14555;DHT22;7364;50.870;4.722;2023-05-10T07:27:23;14.20;99.90
14555;DHT22;7364;50.870;4.722;2023-05-10T07:29:52;14.10;99.90
14555;DHT22;7364;50.870;4.722;2023-05-10T07:32:20;13.90;99.90
14555;DHT22;7364;50.870;4.722;2023-05-10T07:34:47;13.90;99.90
14555;DHT22;7364;50.870;4.722;2023-05-10T07:37:14;13.90;99.90
14555;DHT22;7364;50.870;4.722;2023-05-10T07:39:41;13.80;99.90
14555;DHT22;7364;50.870;4.722;2023-05-10T07:42:09;13.80;99.90
14555;DHT22;7364;50.870;4.722;2023-05-10T07:44:36;13.70;99.90
14555;DHT22;7364;50.870;4.722;2023-05-10T07:47:04;13.70;99.90
14555;DHT22;7364;50.870;4.722;2023-05-10T07:49:32;13.70;99.90
14555;DHT22;7364;50.870;4.722;2023-05-10T07:51:59;13.70;99.90
14555;DHT22;7364;50.870;4.722;2023-05-10T07:54:26;13.90;99.90
14555;DHT22;7364;50.870;4.722;2023-05-10T07:56:53;14.20;99.90
14555;DHT22;7364;50.870;4.722;2023-05-10T07:59:21;14.50;99.90
14555;DHT22;7364;50.870;4.722;2023-05-10T08:01:48;14.40;99.90
14555;DHT22;7364;50.870;4.722;2023-05-10T08:04:17;14.00;99.90
14555;DHT22;7364;50.870;4.722;2023-05-10T08:06:44;13.80;99.90
14555;DHT22;7364;50.870;4.722;2023-05-10T08:09:11;13.80;99.90
14555;DHT22;7364;50.870;4.722;2023-05-10T08:11:38;13.60;99.90
14555;DHT22;7364;50.870;4.722;2023-05-10T08:14:05;13.40;99.90
14555;DHT22;7364;50.870;4.722;2023-05-10T08:16:33;13.40;99.90
14555;DHT22;7364;50.870;4.722;2023-05-10T08:19:00;13.50;99.90
14555;DHT22;7364;50.870;4.722;2023-05-10T08:21:28;13.40;99.90
14555;DHT22;7364;50.870;4.722;2023-05-10T08:23:56;13.60;99.90
14555;DHT22;7364;50.870;4.722;2023-05-10T08:26:24;13.80;99.90
14555;DHT22;7364;50.870;4.722;2023-05-10T08:28:51;13.90;99.90
14555;DHT22;7364;50.870;4.722;2023-05-10T08:31:18;13.90;99.90
14555;DHT22;7364;50.870;4.722;2023-05-10T08:33:46;14.00;99.90
14555;DHT22;7364;50.870;4.722;2023-05-10T08:36:13;14.00;99.90
14555;DHT22;7364;50.870;4.722;2023-05-10T08:38:46;13.90;99.90
14555;DHT22;7364;50.870;4.722;2023-05-10T08:41:14;13.70;99.90
14555;DHT22;7364;50.870;4.722;2023-05-10T08:43:41;13.70;99.90
14555;DHT22;7364;50.870;4.722;2023-05-10T08:46:14;13.70;99.90
14555;DHT22;7364;50.870;4.722;2023-05-10T08:48:43;13.80;99.90
14555;DHT22;7364;50.870;4.722;2023-05-10T08:51:12;13.80;99.90
14555;DHT22;7364;50.870;4.722;2023-05-10T08:53:40;13.70;99.90
14555;DHT22;7364;50.870;4.722;2023-05-10T08:56:08;13.70;99.90
14555;DHT22;7364;50.870;4.722;2023-05-10T08:58:36;13.70;99.90
14555;DHT22;7364;50.870;4.722;2023-05-10T09:01:04;13.70;99.90
14555;DHT22;7364;50.870;4.722;2023-05-10T09:03:31;13.80;99.90
14555;DHT22;7364;50.870;4.722;2023-05-10T09:05:59;13.80;99.90
14555;DHT22;7364;50.870;4.722;2023-05-10T09:08:26;13.80;99.90
14555;DHT22;7364;50.870;4.722;2023-05-10T09:10:54;13.80;99.90
14555;DHT22;7364;50.870;4.722;2023-05-10T09:13:24;13.90;99.90
14555;DHT22;7364;50.870;4.722;2023-05-10T09:15:52;14.10;99.90
14555;DHT22;7364;50.870;4.722;2023-05-10T09:18:19;14.10;99.90
14555;DHT22;7364;50.870;4.722;2023-05-10T09:20:47;14.30;99.90
14555;DHT22;7364;50.870;4.722;2023-05-10T09:23:15;14.20;99.90
14555;DHT22;7364;50.870;4.722;2023-05-10T09:25:42;14.00;99.90
14555;DHT22;7364;50.870;4.722;2023-05-10T09:28:09;13.90;99.90
14555;DHT22;7364;50.870;4.722;2023-05-10T09:30:38;13.90;99.90
14555;DHT22;7364;50.870;4.722;2023-05-10T09:33:06;14.00;99.90
14555;DHT22;7364;50.870;4.722;2023-05-10T09:35:33;14.20;99.90
14555;DHT22;7364;50.870;4.722;2023-05-10T09:38:03;14.40;99.90
14555;DHT22;7364;50.870;4.722;2023-05-10T09:40:31;14.30;99.90
14555;DHT22;7364;50.870;4.722;2023-05-10T09:42:59;14.50;99.90
14555;DHT22;7364;50.870;4.722;2023-05-10T09:45:27;14.50;99.90
14555;DHT22;7364;50.870;4.722;2023-05-10T09:47:57;14.40;99.90
14555;DHT22;7364;50.870;4.722;2023-05-10T09:50:25;14.40;99.90
14555;DHT22;7364;50.870;4.722;2023-05-10T09:52:54;14.70;99.90
14555;DHT22;7364;50.870;4.722;2023-05-10T09:55:22;14.80;99.90
14555;DHT22;7364;50.870;4.722;2023-05-10T09:57:59;14.60;99.90
14555;DHT22;7364;50.870;4.722;2023-05-10T10:00:26;14.40;99.90
14555;DHT22;7364;50.870;4.722;2023-05-10T10:02:56;14.40;99.90
14555;DHT22;7364;50.870;4.722;2023-05-10T10:05:28;14.60;99.90
14555;DHT22;7364;50.870;4.722;2023-05-10T10:07:57;14.90;99.90
14555;DHT22;7364;50.870;4.722;2023-05-10T10:10:24;15.00;99.90
14555;DHT22;7364;50.870;4.722;2023-05-10T10:12:52;15.00;99.90
14555;DHT22;7364;50.870;4.722;2023-05-10T10:15:20;15.00;99.90
14555;DHT22;7364;50.870;4.722;2023-05-10T10:17:48;14.90;99.90
14555;DHT22;7364;50.870;4.722;2023-05-10T10:20:18;14.70;99.90
14555;DHT22;7364;50.870;4.722;2023-05-10T10:22:48;14.60;99.90
14555;DHT22;7364;50.870;4.722;2023-05-10T10:25:17;14.50;99.90
14555;DHT22;7364;50.870;4.722;2023-05-10T10:27:55;14.60;99.90
14555;DHT22;7364;50.870;4.722;2023-05-10T10:30:27;14.90;99.90
14555;DHT22;7364;50.870;4.722;2023-05-10T10:33:13;15.00;99.90
14555;DHT22;7364;50.870;4.722;2023-05-10T10:35:46;14.80;99.90
14555;DHT22;7364;50.870;4.722;2023-05-10T10:38:14;14.70;99.90
14555;DHT22;7364;50.870;4.722;2023-05-10T10:40:42;14.80;99.90
14555;DHT22;7364;50.870;4.722;2023-05-10T10:43:24;15.00;99.90
14555;DHT22;7364;50.870;4.722;2023-05-10T10:46:12;15.20;99.90
14555;DHT22;7364;50.870;4.722;2023-05-10T10:48:40;15.00;99.90
14555;DHT22;7364;50.870;4.722;2023-05-10T10:51:08;15.10;99.90
14555;DHT22;7364;50.870;4.722;2023-05-10T10:53:37;15.20;99.90
14555;DHT22;7364;50.870;4.722;2023-05-10T10:56:07;15.20;99.90
14555;DHT22;7364;50.870;4.722;2023-05-10T10:58:35;15.30;99.90
14555;DHT22;7364;50.870;4.722;2023-05-10T11:01:11;15.50;99.90
14555;DHT22;7364;50.870;4.722;2023-05-10T11:03:38;15.50;99.90
14555;DHT22;7364;50.870;4.722;2023-05-10T11:06:07;15.50;99.90
14555;DHT22;7364;50.870;4.722;2023-05-10T11:08:41;15.30;99.90
14555;DHT22;7364;50.870;4.722;2023-05-10T11:11:10;15.40;99.90
14555;DHT22;7364;50.870;4.722;2023-05-10T11:13:42;15.40;99.90
14555;DHT22;7364;50.870;4.722;2023-05-10T11:16:12;15.50;99.90
14555;DHT22;7364;50.870;4.722;2023-05-10T11:18:40;16.10;99.90
14555;DHT22;7364;50.870;4.722;2023-05-10T11:21:09;16.30;99.90
14555;DHT22;7364;50.870;4.722;2023-05-10T11:23:50;16.30;99.90
14555;DHT22;7364;50.870;4.722;2023-05-10T11:26:18;17.00;99.90
14555;DHT22;7364;50.870;4.722;2023-05-10T11:28:49;17.80;99.90
14555;DHT22;7364;50.870;4.722;2023-05-10T11:31:17;18.40;99.90
14555;DHT22;7364;50.870;4.722;2023-05-10T11:33:46;18.50;99.90
14555;DHT22;7364;50.870;4.722;2023-05-10T11:36:16;18.10;99.90
14555;DHT22;7364;50.870;4.722;2023-05-10T11:38:44;17.70;99.90
14555;DHT22;7364;50.870;4.722;2023-05-10T11:41:12;17.70;99.90
14555;DHT22;7364;50.870;4.722;2023-05-10T11:43:40;18.70;99.90
14555;DHT22;7364;50.870;4.722;2023-05-10T11:46:09;19.10;99.90
14555;DHT22;7364;50.870;4.722;2023-05-10T11:48:39;18.80;99.90
14555;DHT22;7364;50.870;4.722;2023-05-10T11:51:07;18.80;99.90
14555;DHT22;7364;50.870;4.722;2023-05-10T11:53:36;18.80;99.90
14555;DHT22;7364;50.870;4.722;2023-05-10T11:56:04;18.30;99.90
14555;DHT22;7364;50.870;4.722;2023-05-10T11:58:32;17.80;99.90
14555;DHT22;7364;50.870;4.722;2023-05-10T12:01:02;17.60;99.90
14555;DHT22;7364;50.870;4.722;2023-05-10T12:03:30;17.60;99.90
14555;DHT22;7364;50.870;4.722;2023-05-10T12:05:58;17.50;99.90
14555;DHT22;7364;50.870;4.722;2023-05-10T12:08:27;17.60;99.90
14555;DHT22;7364;50.870;4.722;2023-05-10T12:11:05;17.70;99.90
14555;DHT22;7364;50.870;4.722;2023-05-10T12:13:32;17.80;99.90
14555;DHT22;7364;50.870;4.722;2023-05-10T12:15:59;18.70;99.90
14555;DHT22;7364;50.870;4.722;2023-05-10T12:18:26;19.40;99.90
14555;DHT22;7364;50.870;4.722;2023-05-10T12:20:54;20.50;99.90
14555;DHT22;7364;50.870;4.722;2023-05-10T12:23:29;20.90;99.90
14555;DHT22;7364;50.870;4.722;2023-05-10T12:26:02;21.20;99.90
14555;DHT22;7364;50.870;4.722;2023-05-10T12:28:30;21.80;99.90
14555;DHT22;7364;50.870;4.722;2023-05-10T12:30:58;21.70;99.90
14555;DHT22;7364;50.870;4.722;2023-05-10T12:33:25;21.50;99.90
14555;DHT22;7364;50.870;4.722;2023-05-10T12:35:54;21.60;99.90
14555;DHT22;7364;50.870;4.722;2023-05-10T12:38:26;21.70;99.90
14555;DHT22;7364;50.870;4.722;2023-05-10T12:40:56;22.30;99.90
14555;DHT22;7364;50.870;4.722;2023-05-10T12:43:24;22.30;99.90
14555;DHT22;7364;50.870;4.722;2023-05-10T12:45:51;21.40;99.90
14555;DHT22;7364;50.870;4.722;2023-05-10T12:48:18;20.80;99.90
14555;DHT22;7364;50.870;4.722;2023-05-10T12:50:46;20.60;99.90
14555;DHT22;7364;50.870;4.722;2023-05-10T12:53:14;20.90;99.90
14555;DHT22;7364;50.870;4.722;2023-05-10T12:55:41;21.10;99.90
14555;DHT22;7364;50.870;4.722;2023-05-10T12:58:10;21.30;99.90
14555;DHT22;7364;50.870;4.722;2023-05-10T13:00:37;21.40;99.90
14555;DHT22;7364;50.870;4.722;2023-05-10T13:03:05;21.30;99.90
14555;DHT22;7364;50.870;4.722;2023-05-10T13:05:32;21.10;99.90
14555;DHT22;7364;50.870;4.722;2023-05-10T13:08:00;20.80;99.90
14555;DHT22;7364;50.870;4.722;2023-05-10T13:10:29;20.60;99.90
14555;DHT22;7364;50.870;4.722;2023-05-10T13:13:00;20.80;99.90
14555;DHT22;7364;50.870;4.722;2023-05-10T13:15:30;20.50;99.90
14555;DHT22;7364;50.870;4.722;2023-05-10T13:17:57;20.90;99.90
14555;DHT22;7364;50.870;4.722;2023-05-10T13:20:25;21.10;99.90
14555;DHT22;7364;50.870;4.722;2023-05-10T13:22:52;20.10;99.90
14555;DHT22;7364;50.870;4.722;2023-05-10T13:25:20;19.90;99.90
14555;DHT22;7364;50.870;4.722;2023-05-10T13:27:47;20.20;99.90
14555;DHT22;7364;50.870;4.722;2023-05-10T13:30:15;19.90;99.90
14555;DHT22;7364;50.870;4.722;2023-05-10T13:32:43;19.50;99.90
14555;DHT22;7364;50.870;4.722;2023-05-10T13:35:11;19.30;99.90
14555;DHT22;7364;50.870;4.722;2023-05-10T13:37:38;19.50;99.90
14555;DHT22;7364;50.870;4.722;2023-05-10T13:40:06;20.10;99.90
14555;DHT22;7364;50.870;4.722;2023-05-10T13:42:34;20.20;99.90
14555;DHT22;7364;50.870;4.722;2023-05-10T13:45:01;20.10;99.90
14555;DHT22;7364;50.870;4.722;2023-05-10T13:47:31;20.30;99.90
14555;DHT22;7364;50.870;4.722;2023-05-10T13:50:00;20.80;99.90
14555;DHT22;7364;50.870;4.722;2023-05-10T13:52:28;20.90;99.90
14555;DHT22;7364;50.870;4.722;2023-05-10T13:54:55;20.80;99.90
14555;DHT22;7364;50.870;4.722;2023-05-10T13:57:23;20.80;99.90
14555;DHT22;7364;50.870;4.722;2023-05-10T13:59:50;20.70;99.90
14555;DHT22;7364;50.870;4.722;2023-05-10T14:02:18;20.40;99.90
14555;DHT22;7364;50.870;4.722;2023-05-10T14:04:45;20.10;99.90
14555;DHT22;7364;50.870;4.722;2023-05-10T14:07:14;20.30;99.90
14555;DHT22;7364;50.870;4.722;2023-05-10T14:09:41;20.20;99.90
14555;DHT22;7364;50.870;4.722;2023-05-10T14:12:08;20.50;99.90
14555;DHT22;7364;50.870;4.722;2023-05-10T14:14:36;21.10;99.90
14555;DHT22;7364;50.870;4.722;2023-05-10T14:17:03;21.40;99.90
14555;DHT22;7364;50.870;4.722;2023-05-10T14:19:30;21.80;99.90
14555;DHT22;7364;50.870;4.722;2023-05-10T14:21:59;22.30;99.90
14555;DHT22;7364;50.870;4.722;2023-05-10T14:24:28;22.30;99.90
14555;DHT22;7364;50.870;4.722;2023-05-10T14:26:55;22.30;99.90
14555;DHT22;7364;50.870;4.722;2023-05-10T14:29:22;21.90;99.90
14555;DHT22;7364;50.870;4.722;2023-05-10T14:31:50;21.90;99.90
14555;DHT22;7364;50.870;4.722;2023-05-10T14:34:20;22.80;99.90
14555;DHT22;7364;50.870;4.722;2023-05-10T14:36:47;23.30;99.90
14555;DHT22;7364;50.870;4.722;2023-05-10T14:39:15;23.80;99.90
14555;DHT22;7364;50.870;4.722;2023-05-10T14:41:44;24.50;99.90
14555;DHT22;7364;50.870;4.722;2023-05-10T14:44:12;24.10;99.90
14555;DHT22;7364;50.870;4.722;2023-05-10T14:46:41;22.70;99.90
14555;DHT22;7364;50.870;4.722;2023-05-10T14:49:08;22.00;99.90
14555;DHT22;7364;50.870;4.722;2023-05-10T14:51:35;21.70;99.90
14555;DHT22;7364;50.870;4.722;2023-05-10T14:54:03;21.90;99.90
14555;DHT22;7364;50.870;4.722;2023-05-10T14:56:31;22.20;99.90
14555;DHT22;7364;50.870;4.722;2023-05-10T14:59:00;22.70;99.90
14555;DHT22;7364;50.870;4.722;2023-05-10T15:01:28;22.70;99.90
14555;DHT22;7364;50.870;4.722;2023-05-10T15:03:55;23.10;99.90
14555;DHT22;7364;50.870;4.722;2023-05-10T15:06:29;22.60;99.90
14555;DHT22;7364;50.870;4.722;2023-05-10T15:08:57;21.90;99.90
14555;DHT22;7364;50.870;4.722;2023-05-10T15:11:24;20.80;99.90
14555;DHT22;7364;50.870;4.722;2023-05-10T15:13:51;20.70;99.90
14555;DHT22;7364;50.870;4.722;2023-05-10T15:16:20;20.40;99.90
14555;DHT22;7364;50.870;4.722;2023-05-10T15:18:48;20.30;99.90
14555;DHT22;7364;50.870;4.722;2023-05-10T15:21:15;20.30;99.90
14555;DHT22;7364;50.870;4.722;2023-05-10T15:23:42;20.40;99.90
14555;DHT22;7364;50.870;4.722;2023-05-10T15:26:10;20.50;99.90
14555;DHT22;7364;50.870;4.722;2023-05-10T15:28:37;20.70;99.90
14555;DHT22;7364;50.870;4.722;2023-05-10T15:31:05;20.60;99.90
14555;DHT22;7364;50.870;4.722;2023-05-10T15:33:34;20.50;99.90
14555;DHT22;7364;50.870;4.722;2023-05-10T15:36:01;19.90;99.90
14555;DHT22;7364;50.870;4.722;2023-05-10T15:38:29;19.30;99.90
14555;DHT22;7364;50.870;4.722;2023-05-10T15:40:57;18.90;99.90
14555;DHT22;7364;50.870;4.722;2023-05-10T15:43:24;18.80;99.90
14555;DHT22;7364;50.870;4.722;2023-05-10T15:45:51;18.90;99.90
14555;DHT22;7364;50.870;4.722;2023-05-10T15:48:18;18.50;99.90
14555;DHT22;7364;50.870;4.722;2023-05-10T15:50:47;17.90;99.90
14555;DHT22;7364;50.870;4.722;2023-05-10T15:53:14;17.60;99.90
14555;DHT22;7364;50.870;4.722;2023-05-10T15:55:41;17.20;99.90
14555;DHT22;7364;50.870;4.722;2023-05-10T15:58:08;16.90;99.90